Terminal Aerodrome Forecast
Issued by NWS Jackson, MS

Home | Current Version | Previous Version | Text Only | Print | Product List | Glossary On
Versions: 1 2 3 4 5 6 7 8 9 10 11 12 13 14 15 16 17
000
FTUS44 KJAN 040500
TAFHBG
TAF
KHBG 040522Z 0406/0506 17006KT 6SM BR OVC015
     FM040700 17005KT 4SM BR OVC007
     FM040800 18004KT 2SM BR OVC003
     FM041000 18002KT 1/4SM FG OVC001
     FM041300 17003KT 1/2SM FG OVC003
     FM041500 19007KT 4SM BR OVC007
     FM041700 20009KT P6SM OVC015
     FM042100 18006KT P6SM VCTS OVC035CB=

USA.gov is the U.S. government's official web portal to all federal, state and local government web resources and services.